COOK1: Arkansas River Nr Coolidge, KS

                                SHEF ID:       COOK1     ARKANSAS R NR COOLIDGE, KS
STATION TYPE:
Regulating: Stage = 8.00, Flow = 2026

PRECIP STAGE STAGE(2) RIV-FLOW WTR-TEMP CONDUCT BAT-LOAD
in ft ft cfs F umho/cm volt
Ccp-Rev Ccp-Rev Ccp-Rev Ccp-Rev Ccp-Rev Ccp-Rev Ccp-Rev
(America/Chicago)
07/18 00:00 0.00 4.53 4.66 370 78.73 3235 12.89
07/18 01:00 0.00 4.52 4.63 368 78.03 3254 12.89
07/18 02:00 0.05 4.51 4.64 365 77.31 3247 12.89
07/18 03:00 0.03 4.52 4.65 368 76.64 3247 12.89
07/18 04:00 0.00 4.48 4.64 358 76.05 3247 12.89
07/18 05:00 0.00 4.50 4.60 363 75.43 3247 12.89
07/18 06:00 0.02 4.48 4.59 358 74.77 3245 12.83
07/18 07:00 0.01 4.47 4.62 355 74.21 3254 12.83
07/18 08:00 0.00 4.48 4.62 358 73.81 3267 12.77
07/18 09:00 0.00 4.47 4.60 355 73.49 3260 12.89
07/18 10:00 0.00 4.48 4.62 358 73.27 3265 13.07
07/18 11:00 0.00 4.47 4.61 355 73.83 3283 13.53
07/18 12:00 0.00 4.48 4.62 358 75.09 3294 13.71
07/18 13:00 0.00 4.49 4.64 360 76.46 3301 13.77
07/18 14:00 0.00 4.48 4.63 358 77.88 3298 13.83
07/18 15:00 0.00 4.49 4.63 360 79.23 3281 13.77
07/18 16:00 0.00 4.52 4.64 368 80.40 3265 13.77
07/18 17:00 0.00 4.50 4.65 363 81.03 3231 13.59
07/18 18:00 0.00 4.53 4.65 370 81.79 3190 13.36
07/18 19:00 0.00 4.51 4.65 365 81.64 3159 13.24
07/18 20:00 0.00 4.54 4.67 373 81.21 3145 13.18
07/18 21:00 0.00 4.53 4.66 370 80.87 3146 13.07
07/18 22:00 0.00 4.54 4.65 373 80.28 3164 13.00
07/18 23:00 ---- ---- ---- ---- ---- ---- ----
Data processed at Fri 19Jul2024 04:30 GMT

Parsing this webpage?

Checkout our new Data API! CWMSDataAPI (CDA)

Timeseries IDs (TSIDs)

TSIDs used from left to right in the data table
COOL.Precip-Inc.Total.1Hour.1Hour.Ccp-Rev
COOL.Stage.Inst.1Hour.0.Ccp-Rev
COOL.Stage-Alt.Inst.1Hour.0.Ccp-Rev
COOL.Flow.Inst.1Hour.0.Ccp-Rev
COOL.Temp-Water.Inst.1Hour.0.Ccp-Rev
COOL.Cond.Inst.1Hour.0.Ccp-Rev
COOL.Volt-Battery Load.Inst.1Hour.0.Ccp-Rev

                            

All information presented herein is the property of the government of the United States of America and may be revised or deleted at any time without prior notice. Dissemination of this information without the expressed written consent of the Public Affairs Office, Tulsa District U.S. Army Corps of Engineers is strictly prohibited. These data are gathered electronically and, as presented, have NOT undergone any form of quality control. These data are NOT guaranteed to be valid or correct.